Número do voo
TLA1705
Partida Destino
Maestro Wilson Fonseca Airport (SBSN) Ver Cartas Aéreas

Eduardo Gomes International Airport (SBEG) Ver Cartas Aéreas

Hora de Partida Hora de Chegada
17:00 18:20
Aeronave Distância
EMB-120 318nm
METAR do Aeroporto de Partida METAR do Aeroporto de Destino
SBSN 260600Z 19003KT 9999 TS VCSH FEW015 FEW020CB 25/24 Q1009 SBEG 260600Z 02001KT 9999 FEW020 25/24 Q1011
Rota

UZ81

SkyVector

 

Notas

Dados adicionais









Copyright © 2020 Todos os direitos reservados. Tropical Linhas Aereas Virtuais

Cms by phpVMS